Latest METARs, TAFs and NOTAMs for LIRN


---------------------------------------------------------------------------
	(OBSERVATIONS)
LIRN 220750Z 05009KT CAVOK 10/04 Q1022 NOSIG=
LIRN 220720Z 04007KT CAVOK 10/04 Q1022 NOSIG=
LIRN 220650Z 05008KT CAVOK 09/04 Q1022 NOSIG=
LIRN 220620Z 06010KT CAVOK 10/04 Q1022 NOSIG=
LIRN 220550Z 05010KT CAVOK 09/04 Q1022 NOSIG=
LIRN 220520Z 05012KT CAVOK 10/04 Q1022 NOSIG=
---------------------------------------------------------------------------
	(FC)
Sorry, FC For LIRN Not Found
---------------------------------------------------------------------------
	(TERMINAL AREA FORECAST)
LIRN 220500Z 2206/2306 05012KT 9999 SCT040
    BECMG 2216/2218 RA=
---------------------------------------------------------------------------
	(NOTAMS)


LIRN A0004/17 TAXIWAYS 'H' EDGE LIGHTS UNSERVICEABLE REF AIP
    AD 2 LIRN 2-1. 02 JAN 09:31 2017 UNTIL 31 MAR 23:59 2017
    ESTIMATED. CREATED: 02 JAN 09:31 2017

LIRN A0159/17 CIRCLING GUIDANCE LIGHTS (CGL) RWY 06 UNSERVICEABLE
    REF AIP AD 2 LIRN 2-1. 11 JAN 10:37 2017 UNTIL 10 APR 23:59
    2017 ESTIMATED. CREATED: 11 JAN 10:37 2017

LIRN A0160/17 DME ASSOCIATED WITH ILS RWY24 UNSERVICEABLE DUE
    TO TECR REF AIP AD 2 LIRN 1-7. 11 JAN 10:38 2017 UNTIL 10
    APR 23:59 2017 ESTIMATED. CREATED: 11 JAN 10:38 2017

LIRN A0162/17 TEANO VOR/DME 'TEA' FREQ 112.90MHZ CH 76X REMOTE
    STATUS INDICATOR NOT AVBL REF AIP AD 2 LIRN 1-9. 11 JAN 11:21
    2017 UNTIL 08 APR 23:59 2017 ESTIMATED. CREATED: 11 JAN 11:21
    2017

LIRN A0258/17 RWY 06/24 STRIP WIDTH REDUCED TO 105M ON LEFT SIDE
    RWY 24 FOR THE FIRST 316M OF LENGTH, INCLUDING RWY HEAD.
    AS A CONSEQUENCE, MAXIMUM CROSSWIND COMPONENT ALLOWED 15KT.
    REF AIP AD 2 LIRN 2-1. 16 JAN 10:28 2017 UNTIL 31 JAN 14:00
    2017 ESTIMATED. CREATED: 16 JAN 10:28 2017

LIRN A0259/17 TWY F, TWY G AND AND TWY TS BTN TWY F AND TWY G
    CLOSED DUE TO WIP. REF AIP AD 2 LIRN 2-1. 16 JAN 10:29 2017
    UNTIL 31 JAN 14:00 2017 ESTIMATED. CREATED: 16 JAN 10:29
    2017

LIRN A0265/17 TWY 'H' AVBL ONLY FOR MILITARY ACFT. DURING NIGHT
    TIME USE OF FOLLOW-ME IS COMPULSORY. REF AIP AD 2 LIRN 2-1.1
    AND 2-5.1. 16 JAN 11:01 2017 UNTIL 31 JAN 23:59 2017 ESTIMATED.
    CREATED: 16 JAN 11:01 2017

LIRN A0276/17 PONZA VORTAC 'PNZ' FREQ 114.60MHZ CH 93X AVBL AS
    FLW: - VOR UNSERVICEABLE - TACAN OPERATIVE REF AIP AD 2 LIRN
    1-8. 16 JAN 14:47 2017 UNTIL 15 APR 23:59 2017 ESTIMATED.
    CREATED: 16 JAN 14:47 2017

LIRN A0432/17 ILS RWY 24 AVAILABILITY CANNOT GRANTED DUE TO MAINT
    ACTIVITY IN PROGRESS. INSTRUMENT APPROACH PROCEDURES FOR
    RWY 24 WILL BE AUTH BY ATC ACCORDING TO ACTUAL APPARATUS
    AVAILABILITY. WITH RWY 24 IN USE AND ILS NOT AVBL, IFR ARR
    WILL BE INSTRUCTED FOR CIRCLING PROCEDURE. REF AIP AD 2 LIRN
    1-7. 16 FEB 00:00 2017 UNTIL 16 FEB 03:00 2017. CREATED:
    20 JAN 13:32 2017

LIRN A0434/17 ILS RWY 06 AVAILABILITY CANNOT GRANTED DUE TO MAINT
    ACTIVITY IN PROGRESS. INSTRUMENT APPROACH PROCEDURES FOR
    RWY 06 WILL BE AUTH BY ATC ACCORDING TO ACTUAL APPARATUS
    AVAILABILITY. WITH RWY 06 IN USE AND ILS NOT AVBL, IFR ARR
    WILL BE INSTRUCTED FOR VOR OR CIRCLING PROCEDURE. REF AIP
    AD 2 LIRN 1-7. 17 FEB 00:00 2017 UNTIL 17 FEB 03:00 2017.
    CREATED: 20 JAN 14:07 2017

LIRN A0436/17 TEANO NDB 'TEA' FREQ 400.00KHZ UNSERVICEABLE DUE
    TO MAINT REF AIP AD 2 LIRN 1-9. 01 FEB 10:00 2017 UNTIL 01
    FEB 11:00 2017. CREATED: 20 JAN 14:31 2017

LIRN A0437/17 POMIGLIANO NDB 'POM' FREQ 351.00KHZ UNSERVICEABLE
    DUE TO MAINT REF AIP AD 2 LIRN 1-8. 08 FEB 09:00 2017 UNTIL
    08 FEB 10:00 2017. CREATED: 20 JAN 14:37 2017

LIRN A0439/17 NAPOLI CTR. APPROACH CONTROL SER PROVIDES ONLY
    RADAR MONITORING DUE TO APPARATUS ON MAINT. RADAR SERVICE
    NOT AVBL BELOW 6000FT. REF AIP AD 2 LIRN 1-7. 15 FEB 22:00
    2017 UNTIL 16 FEB 02:00 2017. CREATED: 20 JAN 14:47 2017

LIRN A0442/17 AERODROME CONTROL SER AVBL WO RADAR DUE TO APPARATUS
    ON MAINT REF AIP AD 2 LIRN 1-7. 15 FEB 22:00 2017 UNTIL 16
    FEB 02:00 2017. CREATED: 20 JAN 15:09 2017

LIRN A0814/16 REF AIP AD 2 LIRN 5-3 AND 5-7 INSTRUMENT APPROACH
    PROCEDURES ILS-Z RWY 24 ILS-W RWY 24 (ATC DISCRETION) MODIFY
    MISSED APPROACH AS FLW: AS SOON AS PRACTICABLE, CLIMBING
    TO 6000FT, TURN LEFT ON TR 180DEG, NOT BEFORE 1.3NM INPL
    DME (2.1NM NPC DME) WITH IAS MAX 180 KT, TO JOIN RDL/QDR
    342 SOR VOR/NDB BOUND TO GEMMA (4000FT MCA) THEN SOR VOR/NDB
    (6000FT). 10 FEB 16:39 2016 UNTIL PERM. CREATED: 10 FEB 16:39
    2016

LIRN A0815/16 REF AIP AD 2 LIRN 5-9 INSTRUMENT APPROACH PROCEDURE
    ILS-V RWY 24 (ATC DISCRETION) MODIFY MISSED APPROACH AS FLW:
    AS SOON AS PRACTICABLE, CLIMBING TO 6000FT, TURN LEFT ON
    TR 180DEG, NOT BEFORE 3.1NM POM DME, PASSING POM DME, WITH
    IAS MAX 180 KT, TO JOIN RDL/QDR 342 SOR VOR/NDB BOUND TO
    GEMMA (4000FT MCA) THEN SOR VOR/NDB (6000FT). 10 FEB 16:40
    2016 UNTIL PERM. CREATED: 10 FEB 16:40 2016

LIRN A0816/16 REF AIP AD 2 LIRN 5-11, 5-15 AND 5-17 INSTRUMENT
    APPROACH PROCEDURES LOC-Z RWY 24 LOC-W RWY 24 (ATC DISCRETION)
    LOC-V RWY 24 (ATC DISCRETION) MODIFY MISSED APPROACH AS FLW:
    ON MAPT CLIMB TO 6000FT AND TURN LEFT ON TR 180DEG (IAS MAX
    180 KT) TO JOIN RDL/QDR 342 SOR VOR/NDB BOUND TO GEMMA (4000FT
    MCA) THEN SOR VOR/NDB (6000FT). 10 FEB 16:42 2016 UNTIL PERM.
    CREATED: 10 FEB 16:42 2016

LIRN A0817/16 REF AIP AD 2 LIRN 5-13 INSTRUMENT APPROACH PROCEDURE
    LOC-Y RWY 24 MODIFY MISSED APPROACH AS FLW: ON MAPT CLIMB
    TO 6000FT AND TURN LEFT ON TR 180DEG (IAS MAX 180 KT) TO
    JOIN RDL/QDR 156 TEA VOR/NDB BOUND TO GEMMA (4000FT MCA)
    THEN PROCEED TO MISSED APPROACH HOLDING PATTERN. HOLD ON
    RDL/QDR 156 TEA VOR/NDB BETWEEN 40NM AND 44NM TEA DME, INBOUND
    TR 336DEG, LEFT TURNS, MHA 6000FT. 10 FEB 16:42 2016 UNTIL
    PERM. CREATED: 10 FEB 16:42 2016

LIRN A0818/16 REF AIP AD 2 LIRN 5-5 INSTRUMENT APPROACH PROCEDURE
    ILS-Y RWY24 MODIFY MISSED APPROACH AS FLW: AS SOON AS PRACTICABLE,
    CLIMBING TO 6000FT, TURN LEFT ON TR 180DEG, NOT BEFORE 1.3NM
    INPL DME (2.1NM NPC DME) WITH IAS MAX 180KT, TO JOIN RDL/QDR
    156 TEA VOR/NDB BOUND TO GEMMA (4000FT MCA) THEN PROCEED
    TO MISSED APPROACH HOLDING PATTERN. HOLD ON RDL/QDR 156 TEA
    VOR/NDB BETWEEN 40NM AND 44NM TEA DME, INBOUND TR 336DEG,
    LEFT TURNS, MHA 6000FT. 10 FEB 16:43 2016 UNTIL PERM. CREATED:
    10 FEB 16:43 2016

LIRN A7759/16 SUP 6/16 IN FORCE FM 15 SEP 2016 TO 31 MAR 2017
    EST NAPOLI/CAPODICHINO AD: TWY TN REFURBISHING AND NEW TWY
    P STATUS OF WORKING PHASES: - PHASE 1: ACTIVE - PHASE 2:
    ACTIVE - PHASE 3: SUSPENDED - PHASE 4: NOT ACT YET - PHASE
    5: NOT ACT YET - PHASE 6: ACTIVE - PHASE 7: ACTIVE - PHASE
    8: NOT ACT YET - PHASE 9: NOT ACT YET - PHASE 10: NOT ACT
    YET - PHASE 11: NOT ACT YET - PHASE 12: NOT ACT YET REF AIP
    AD 2 LIRN 2-1.1/12 AND 2-5.1/12. 03 NOV 11:22 2016 UNTIL
    31 JAN 14:00 2017 ESTIMATED. CREATED: 03 NOV 11:22 2016

LIRN A8079/16 NO ENTRY VERTICAL SIGN LEFT SIDE TWY 'BC' NOT AVBL
    REF AIP AD 2 LIRN 2-1. 17 NOV 07:09 2016 UNTIL 03 FEB 23:59
    2017 ESTIMATED. CREATED: 17 NOV 07:09 2016

LIRN A8214/16 PRECISION APPROACH PATH INDICATOR (PAPI) RWY24
    LEFT SIDE UNSERVICEABLE. REF AIP AD 2 LIRN 1-5. 23 NOV 09:06
    2016 UNTIL 30 JAN 09:00 2017 ESTIMATED. CREATED: 23 NOV 09:06
    2016

LIRN A8360/16 TAXIWAY 'M' CLOSED. REF AIP AD 2 LIRN 2-1. 28 NOV
    17:51 2016 UNTIL 26 FEB 04:00 2017 ESTIMATED. CREATED: 28
    NOV 17:52 2016

LIRN A8367/16 ALL STOPBARS AND ALL FIXED RED LIGHTS UNSERVICEABLE
    DUE TO TECR REF AIP AD 2 LIRN 2-1. 29 NOV 08:34 2016 UNTIL
    25 JAN 23:59 2017 ESTIMATED. CREATED: 29 NOV 08:34 2016

LIRN A8806/16 NEW OBSTACLE ERECTED CRANE PENETRATING INNER HORIZONTAL
    SURFACE PSN COORD (WGS84)405232.37N 0141704.06E MAX ELEV
    AMSL 125.50M/411.74FT RMK: ICAO SIGNAL PROVIDED REF AOC TYPE
    B NR RN 2/1. 20 DEC 15:34 2016 UNTIL 31 JAN 14:00 2017 ESTIMATED.
    CREATED: 20 DEC 15:34 2016

LIRN F0015/07 [DEFENSE ENERGY SUPPORT CENTER ADVISORY] FUEL AVAILABILITY
    NOT AVAILABLE PHONE AHEAD FOR FUEL AVAILABILITY. 12 JUL 10:20
    2020 UNTIL 01 AUG 25:20 2020

---------------------------------------------------------------------------